createdAt,value
2023-04-10T00:00:46.425Z,48.47
2023-04-10T00:01:46.471Z,48.79
2023-04-10T00:02:46.502Z,48.90
2023-04-10T00:03:46.544Z,49.09
2023-04-10T00:04:46.443Z,49.30
2023-04-10T00:05:46.401Z,49.63
2023-04-10T00:06:46.358Z,49.75
2023-04-10T00:07:46.364Z,49.64
2023-04-10T00:08:46.377Z,49.40
2023-04-10T00:09:46.339Z,49.49
2023-04-10T00:10:46.312Z,49.47
2023-04-10T00:11:46.346Z,49.38
2023-04-10T00:12:46.387Z,49.17
2023-04-10T00:13:46.393Z,49.25
2023-04-10T00:14:46.402Z,49.33
2023-04-10T00:15:46.432Z,49.27
2023-04-10T00:16:46.505Z,49.25
2023-04-10T00:17:46.462Z,49.41
2023-04-10T00:18:46.444Z,49.58
2023-04-10T00:19:46.481Z,49.71
2023-04-10T00:20:46.465Z,49.66
2023-04-10T00:21:46.491Z,49.28
2023-04-10T00:22:46.497Z,49.13
2023-04-10T00:23:46.481Z,49.43
2023-04-10T00:24:46.481Z,49.50
2023-04-10T00:25:46.493Z,49.28
2023-04-10T00:26:46.493Z,49.27
2023-04-10T00:27:46.503Z,49.24
2023-04-10T00:28:46.510Z,49.22
2023-04-10T00:29:46.525Z,49.26
2023-04-10T00:30:46.547Z,49.13
2023-04-10T00:31:46.598Z,49.02
2023-04-10T00:32:46.613Z,49.11
2023-04-10T00:33:46.570Z,49.15
2023-04-10T00:34:46.591Z,48.99
2023-04-10T00:35:46.630Z,49.18
2023-04-10T00:36:46.609Z,49.15
2023-04-10T00:37:46.613Z,49.18
2023-04-10T00:38:46.639Z,49.03
2023-04-10T00:39:46.656Z,49.08
2023-04-10T00:40:46.710Z,49.20
2023-04-10T00:41:46.709Z,49.35
2023-04-10T00:42:46.697Z,49.54
2023-04-10T00:43:46.718Z,49.70
2023-04-10T00:44:46.718Z,49.39
2023-04-10T00:45:47.932Z,49.46
2023-04-10T00:46:46.699Z,49.37
2023-04-10T00:47:46.710Z,49.37
2023-04-10T00:48:46.660Z,49.30
2023-04-10T00:49:46.670Z,49.14
2023-04-10T00:50:46.677Z,48.79
2023-04-10T00:51:46.652Z,48.71
2023-04-10T00:52:46.634Z,48.91
2023-04-10T00:53:46.672Z,48.96
2023-04-10T00:54:46.624Z,49.00
2023-04-10T00:55:46.635Z,49.06
2023-04-10T00:56:46.597Z,48.98
2023-04-10T00:57:46.602Z,48.74
2023-04-10T00:58:46.596Z,48.72
2023-04-10T00:59:46.640Z,48.77
2023-04-10T01:00:46.629Z,48.68
2023-04-10T01:01:46.641Z,48.97
2023-04-10T01:02:46.695Z,48.97
2023-04-10T01:03:46.656Z,48.75
2023-04-10T01:04:46.563Z,48.71
2023-04-10T01:05:46.540Z,48.89
2023-04-10T01:06:46.608Z,48.68
2023-04-10T01:07:46.567Z,48.59
2023-04-10T01:08:46.539Z,48.75
2023-04-10T01:09:46.539Z,48.94
2023-04-10T01:10:46.565Z,49.16
2023-04-10T01:11:46.562Z,49.09
2023-04-10T01:12:46.493Z,49.01
2023-04-10T01:13:46.509Z,49.23
2023-04-10T01:14:46.503Z,49.21
2023-04-10T01:15:46.481Z,49.30
2023-04-10T01:16:46.595Z,49.31
2023-04-10T01:17:46.519Z,49.26
2023-04-10T01:18:46.499Z,49.10
2023-04-10T01:19:46.513Z,49.12
2023-04-10T01:20:46.481Z,49.01
2023-04-10T01:21:46.499Z,49.05
2023-04-10T01:22:46.488Z,49.10
2023-04-10T01:23:46.451Z,49.07
2023-04-10T01:24:46.444Z,49.05
2023-04-10T01:25:46.439Z,49.06
2023-04-10T01:26:46.442Z,49.04
2023-04-10T01:27:46.424Z,49.11
2023-04-10T01:28:46.453Z,49.28
2023-04-10T01:29:46.419Z,49.64
2023-04-10T01:30:46.972Z,49.62
2023-04-10T01:31:46.425Z,49.99
2023-04-10T01:32:46.432Z,49.76
2023-04-10T01:33:46.367Z,49.56
2023-04-10T01:34:46.371Z,49.67
2023-04-10T01:35:46.381Z,49.77
2023-04-10T01:36:46.386Z,49.81
2023-04-10T01:37:46.388Z,50.15
2023-04-10T01:38:46.368Z,50.18
2023-04-10T01:39:46.310Z,50.23
2023-04-10T01:40:46.329Z,50.10
2023-04-10T01:41:46.319Z,50.17
2023-04-10T01:42:46.311Z,49.96
2023-04-10T01:43:46.290Z,49.89
2023-04-10T01:44:46.318Z,50.13
2023-04-10T01:45:46.303Z,50.42
2023-04-10T01:46:46.429Z,50.08
2023-04-10T01:47:46.338Z,50.03
2023-04-10T01:48:46.280Z,50.15
2023-04-10T01:49:46.279Z,50.34
2023-04-10T01:50:46.253Z,50.45
2023-04-10T01:51:46.379Z,50.59
2023-04-10T01:52:46.394Z,50.82
2023-04-10T01:53:46.487Z,50.92
2023-04-10T01:54:46.503Z,51.01
2023-04-10T01:55:46.518Z,51.10
2023-04-10T01:56:46.553Z,50.69
2023-04-10T01:57:46.679Z,50.60
2023-04-10T01:58:46.571Z,51.13
2023-04-10T01:59:46.634Z,50.80
2023-04-10T02:00:46.643Z,50.92
2023-04-10T02:01:46.751Z,51.13
2023-04-10T02:02:46.948Z,51.20
2023-04-10T02:03:46.875Z,51.31
2023-04-10T02:04:46.955Z,51.28
2023-04-10T02:05:46.878Z,51.24
2023-04-10T02:06:46.928Z,51.12
2023-04-10T02:07:46.988Z,51.37
2023-04-10T02:08:47.037Z,51.03
2023-04-10T02:09:47.985Z,50.66
2023-04-10T02:10:47.095Z,50.37
2023-04-10T02:11:47.080Z,50.15
2023-04-10T02:12:47.115Z,50.08
2023-04-10T02:13:47.136Z,50.18
2023-04-10T02:14:47.122Z,50.19
2023-04-10T02:15:47.205Z,49.99
2023-04-10T02:16:47.204Z,50.10
2023-04-10T02:17:47.308Z,50.16
2023-04-10T02:18:47.264Z,49.83
2023-04-10T02:19:47.277Z,50.13
2023-04-10T02:20:47.308Z,49.98
2023-04-10T02:21:47.386Z,49.95
2023-04-10T02:22:47.356Z,50.04
2023-04-10T02:23:47.395Z,49.99
2023-04-10T02:24:47.392Z,49.65
2023-04-10T02:25:47.440Z,49.58
2023-04-10T02:26:47.519Z,49.55
2023-04-10T02:27:47.492Z,49.66
2023-04-10T02:28:47.547Z,49.80
2023-04-10T02:29:47.554Z,49.78
2023-04-10T02:30:47.485Z,49.75
2023-04-10T02:31:47.656Z,49.71
2023-04-10T02:32:47.614Z,49.61
2023-04-10T02:33:47.639Z,49.48
2023-04-10T02:34:47.697Z,49.57
2023-04-10T02:35:47.678Z,49.86
2023-04-10T02:36:47.689Z,49.72
2023-04-10T02:37:47.724Z,49.73
2023-04-10T02:38:47.752Z,49.91
2023-04-10T02:39:47.805Z,49.83
2023-04-10T02:40:47.816Z,49.59
2023-04-10T02:41:47.938Z,49.59
2023-04-10T02:42:47.885Z,49.53
2023-04-10T02:43:47.902Z,49.57
2023-04-10T02:44:47.982Z,49.47
2023-04-10T02:45:47.999Z,49.53
2023-04-10T02:46:48.117Z,49.37
2023-04-10T02:47:48.160Z,49.28
2023-04-10T02:48:48.161Z,49.17
2023-04-10T02:49:48.218Z,49.18
2023-04-10T02:50:48.247Z,49.21
2023-04-10T02:51:48.293Z,49.09
2023-04-10T02:52:48.377Z,49.09
2023-04-10T02:53:56.170Z,49.12
2023-04-10T02:54:48.682Z,49.21
2023-04-10T02:55:48.360Z,49.12
2023-04-10T02:56:48.361Z,49.33
2023-04-10T02:57:48.360Z,49.55
2023-04-10T02:58:48.338Z,49.63
2023-04-10T02:59:48.354Z,49.53
2023-04-10T03:00:48.327Z,50.08
2023-04-10T03:01:48.446Z,49.90
2023-04-10T03:02:48.457Z,49.97
2023-04-10T03:03:48.433Z,49.84
2023-04-10T03:04:48.390Z,50.02
2023-04-10T03:05:48.300Z,49.73
2023-04-10T03:06:48.291Z,49.65
2023-04-10T03:07:48.331Z,49.85
2023-04-10T03:08:48.368Z,50.08
2023-04-10T03:09:48.445Z,50.41
2023-04-10T03:10:48.490Z,50.56
2023-04-10T03:11:48.563Z,50.45
2023-04-10T03:12:48.640Z,50.77
2023-04-10T03:13:48.725Z,50.69
2023-04-10T03:14:48.765Z,50.61
2023-04-10T03:15:48.840Z,50.89
2023-04-10T03:16:49.928Z,51.15
2023-04-10T03:17:48.964Z,50.92
2023-04-10T03:18:48.970Z,51.01
2023-04-10T03:19:49.053Z,51.26
2023-04-10T03:20:49.107Z,51.28
2023-04-10T03:21:49.154Z,51.09
2023-04-10T03:22:49.222Z,50.81
2023-04-10T03:23:49.246Z,50.75
2023-04-10T03:24:49.292Z,50.83
2023-04-10T03:25:49.386Z,50.84
2023-04-10T03:26:49.433Z,50.83
2023-04-10T03:27:49.477Z,50.74
2023-04-10T03:28:49.540Z,50.89
2023-04-10T03:29:49.589Z,51.06
2023-04-10T03:30:49.626Z,51.06
2023-04-10T03:31:49.725Z,51.20
2023-04-10T03:32:49.723Z,51.20
2023-04-10T03:33:49.803Z,51.26
2023-04-10T03:34:49.775Z,51.38
2023-04-10T03:35:49.832Z,51.28
2023-04-10T03:36:49.903Z,51.27
2023-04-10T03:37:49.937Z,51.22
2023-04-10T03:38:49.905Z,51.17
2023-04-10T03:39:50.010Z,50.99
2023-04-10T03:40:50.053Z,50.87
2023-04-10T03:41:50.094Z,50.87
2023-04-10T03:44:10.282Z,51.09
2023-04-10T03:45:10.278Z,51.01
2023-04-10T03:46:10.236Z,50.82
2023-04-10T03:47:10.283Z,50.96
2023-04-10T03:48:10.242Z,51.09
2023-04-10T03:49:10.251Z,51.05
2023-04-10T03:50:10.229Z,51.26
2023-04-10T03:51:10.226Z,51.27
2023-04-10T03:52:10.228Z,51.27
2023-04-10T03:53:10.247Z,51.44
2023-04-10T03:54:10.215Z,51.70
2023-04-10T03:55:10.189Z,51.72
2023-04-10T03:56:10.183Z,52.03
2023-04-10T03:57:10.197Z,51.98
2023-04-10T03:58:10.175Z,51.84
2023-04-10T03:59:10.207Z,51.65
2023-04-10T04:00:10.123Z,51.77
2023-04-10T04:01:10.191Z,51.70
2023-04-10T04:02:10.325Z,51.60
2023-04-10T04:03:10.350Z,51.44
2023-04-10T04:04:10.246Z,51.64
2023-04-10T04:05:10.170Z,51.50
2023-04-10T04:06:10.127Z,51.86
2023-04-10T04:07:10.150Z,51.45
2023-04-10T04:08:10.106Z,51.51
2023-04-10T04:09:10.095Z,51.70
2023-04-10T04:10:10.120Z,51.85
2023-04-10T04:11:10.117Z,51.75
2023-04-10T04:12:10.135Z,51.52
2023-04-10T04:13:10.204Z,51.91
2023-04-10T04:14:10.129Z,52.03
2023-04-10T04:15:10.121Z,51.96
2023-04-10T04:16:10.199Z,51.97
2023-04-10T04:17:10.098Z,51.94
2023-04-10T04:18:10.189Z,51.71
2023-04-10T04:19:10.161Z,51.68
2023-04-10T04:20:10.239Z,51.60
2023-04-10T04:21:10.344Z,51.59
2023-04-10T04:22:10.389Z,51.45
2023-04-10T04:23:10.413Z,51.28
2023-04-10T04:24:10.442Z,51.46
2023-04-10T04:25:10.538Z,51.33
2023-04-10T04:26:10.565Z,51.44
2023-04-10T04:27:10.687Z,51.58
2023-04-10T04:28:10.786Z,51.54
2023-04-10T04:29:10.787Z,51.73
2023-04-10T04:30:10.870Z,51.49
2023-04-10T04:31:10.914Z,51.38
2023-04-10T04:32:11.039Z,51.72
2023-04-10T04:33:11.085Z,51.55
2023-04-10T04:34:11.127Z,51.65
2023-04-10T04:35:11.205Z,51.65
2023-04-10T04:36:11.292Z,51.50
2023-04-10T04:37:11.401Z,51.55
2023-04-10T04:38:11.361Z,51.40
2023-04-10T04:39:11.439Z,51.50
2023-04-10T04:40:11.325Z,51.51
2023-04-10T04:41:11.365Z,51.41
2023-04-10T04:42:11.397Z,51.63
2023-04-10T04:43:11.375Z,51.59
2023-04-10T04:44:11.368Z,51.67
2023-04-10T04:45:11.400Z,51.73
2023-04-10T04:46:11.369Z,51.72
2023-04-10T04:47:11.355Z,51.79
2023-04-10T04:48:11.388Z,51.86
2023-04-10T04:49:11.381Z,51.79
2023-04-10T04:50:11.487Z,51.79
2023-04-10T04:51:11.421Z,51.91
2023-04-10T04:52:11.450Z,52.06
2023-04-10T04:53:11.452Z,51.80
2023-04-10T04:54:11.441Z,51.90
2023-04-10T04:55:11.449Z,52.13
2023-04-10T04:56:11.462Z,52.06
2023-04-10T04:57:11.493Z,52.05
2023-04-10T04:58:11.470Z,52.27
2023-04-10T04:59:11.456Z,52.26
2023-04-10T05:01:40.714Z,53.04
2023-04-10T05:02:31.533Z,52.64
2023-04-10T05:03:31.630Z,52.50
2023-04-10T05:04:31.453Z,52.69
2023-04-10T05:05:31.451Z,52.81
2023-04-10T05:06:31.436Z,52.72
2023-04-10T05:07:31.761Z,52.54
2023-04-10T05:08:31.465Z,52.51
2023-04-10T05:09:31.427Z,52.43
2023-04-10T05:10:31.534Z,52.39
2023-04-10T05:11:31.421Z,52.21
2023-04-10T05:12:31.511Z,52.32
2023-04-10T05:13:31.398Z,52.25
2023-04-10T05:14:31.430Z,52.06
2023-04-10T05:15:31.372Z,51.75
2023-04-10T05:16:31.432Z,51.67
2023-04-10T05:17:31.452Z,51.65
2023-04-10T05:18:31.410Z,51.89
2023-04-10T05:19:31.390Z,51.76
2023-04-10T05:20:31.389Z,51.71
2023-04-10T05:21:31.457Z,51.56
2023-04-10T05:22:31.852Z,51.43
2023-04-10T05:23:31.354Z,51.47
2023-04-10T05:24:31.377Z,51.52
2023-04-10T05:25:31.371Z,51.55
2023-04-10T05:26:31.316Z,51.24
2023-04-10T05:27:31.380Z,51.20
2023-04-10T05:28:31.300Z,50.95
2023-04-10T05:29:31.311Z,50.80
2023-04-10T05:30:31.296Z,50.64
2023-04-10T05:31:31.748Z,50.77
2023-04-10T05:32:31.275Z,50.60
2023-04-10T05:33:31.573Z,50.57
2023-04-10T05:34:31.639Z,50.41
2023-04-10T05:35:31.271Z,50.23
2023-04-10T05:36:31.247Z,50.36
2023-04-10T05:37:31.273Z,50.21
2023-04-10T05:38:31.275Z,50.39
2023-04-10T05:39:31.272Z,50.11
2023-04-10T05:40:32.011Z,49.88
2023-04-10T05:41:31.661Z,49.74
2023-04-10T05:42:31.272Z,49.73
2023-04-10T05:43:31.203Z,49.62
2023-04-10T05:44:31.207Z,49.53
2023-04-10T05:48:10.761Z,49.16
2023-04-10T05:49:10.788Z,49.12
2023-04-10T05:50:10.766Z,48.86
2023-04-10T05:51:10.700Z,48.57
2023-04-10T05:52:10.730Z,48.45
2023-04-10T05:53:10.811Z,48.39
2023-04-10T05:54:10.791Z,48.45
2023-04-10T05:55:10.725Z,48.30
2023-04-10T05:56:10.725Z,48.51
2023-04-10T05:57:10.785Z,48.23
2023-04-10T05:58:10.739Z,47.93
2023-04-10T05:59:10.671Z,48.01
2023-04-10T06:00:10.682Z,48.24
2023-04-10T06:01:10.701Z,48.17
2023-04-10T06:02:10.781Z,47.93
2023-04-10T06:03:10.787Z,47.78
2023-04-10T06:04:10.906Z,47.73
2023-04-10T06:05:10.757Z,47.50
2023-04-10T06:06:10.684Z,47.27
2023-04-10T06:07:10.671Z,46.92
2023-04-10T06:08:10.677Z,46.67
2023-04-10T06:09:10.634Z,46.70
2023-04-10T06:10:10.705Z,46.55
2023-04-10T06:11:10.615Z,46.60
2023-04-10T06:12:10.625Z,46.84
2023-04-10T06:13:11.323Z,46.23
2023-04-10T06:14:10.626Z,46.25
2023-04-10T06:15:10.686Z,45.94
2023-04-10T06:16:10.804Z,45.37
2023-04-10T06:17:10.589Z,46.26
2023-04-10T06:18:10.609Z,45.53
2023-04-10T06:19:10.571Z,44.90
2023-04-10T06:20:10.651Z,45.48
2023-04-10T06:21:10.543Z,45.46
2023-04-10T06:22:10.579Z,45.43
2023-04-10T06:23:10.614Z,45.07
2023-04-10T06:24:12.808Z,45.12
2023-04-10T06:25:10.600Z,45.09
2023-04-10T06:26:10.658Z,45.88
2023-04-10T06:27:10.654Z,46.16
2023-04-10T06:28:10.737Z,45.66
2023-04-10T06:29:10.750Z,45.62
2023-04-10T06:30:10.889Z,44.88
2023-04-10T06:31:10.812Z,45.50
2023-04-10T06:32:10.793Z,45.49
2023-04-10T06:33:10.877Z,45.40
2023-04-10T06:34:10.831Z,45.36
2023-04-10T06:35:10.865Z,44.72
2023-04-10T06:36:10.885Z,44.89
2023-04-10T06:37:10.879Z,45.43
2023-04-10T06:38:11.747Z,45.83
2023-04-10T06:39:10.951Z,44.70
2023-04-10T06:40:11.001Z,45.32
2023-04-10T06:41:11.008Z,45.49
2023-04-10T06:42:11.044Z,45.80
2023-04-10T06:43:11.140Z,45.14
2023-04-10T06:44:11.497Z,45.23
2023-04-10T06:45:11.300Z,44.74
2023-04-10T06:46:11.314Z,44.07
2023-04-10T06:47:11.372Z,43.92
2023-04-10T06:48:11.441Z,43.53
2023-04-10T06:49:11.461Z,43.54
2023-04-10T06:50:11.437Z,43.04
2023-04-10T06:51:11.426Z,42.90
2023-04-10T06:52:11.479Z,42.91
2023-04-10T06:53:11.515Z,42.86
2023-04-10T06:54:11.549Z,43.69
2023-04-10T06:55:11.589Z,42.92
2023-04-10T06:56:11.528Z,42.98
2023-04-10T06:57:11.647Z,41.39
2023-04-10T06:58:11.790Z,41.10
2023-04-10T06:59:12.496Z,41.04
2023-04-10T07:00:11.720Z,41.43
2023-04-10T07:01:11.799Z,41.91
2023-04-10T07:02:11.836Z,42.55
2023-04-10T07:03:11.878Z,41.58
2023-04-10T07:04:11.981Z,41.29
2023-04-10T07:05:11.897Z,40.53
2023-04-10T07:06:11.964Z,40.57
2023-04-10T07:07:11.997Z,40.59
2023-04-10T07:08:12.029Z,40.55
2023-04-10T07:09:12.022Z,40.28
2023-04-10T07:10:12.059Z,40.60
2023-04-10T07:11:12.089Z,41.04
2023-04-10T07:12:12.478Z,41.10
2023-04-10T07:13:12.226Z,40.41
2023-04-10T07:14:12.771Z,40.28
2023-04-10T07:15:12.352Z,40.57
2023-04-10T07:16:12.335Z,41.03
2023-04-10T07:17:12.387Z,40.84
2023-04-10T07:18:12.468Z,41.01
2023-04-10T07:19:12.469Z,40.83
2023-04-10T07:20:12.594Z,40.59
2023-04-10T07:21:12.572Z,40.44
2023-04-10T07:22:12.637Z,40.38
2023-04-10T07:23:12.711Z,40.02
2023-04-10T07:24:12.757Z,40.26
2023-04-10T07:25:12.865Z,40.02
2023-04-10T07:26:12.824Z,39.00
2023-04-10T07:27:12.871Z,38.77
2023-04-10T07:28:12.963Z,39.59
2023-04-10T07:29:12.910Z,39.46
2023-04-10T07:30:13.838Z,39.27
2023-04-10T07:31:13.027Z,38.64
2023-04-10T07:32:13.186Z,38.41
2023-04-10T07:33:13.373Z,38.01
2023-04-10T07:34:13.075Z,38.47
2023-04-10T07:35:13.138Z,39.53
2023-04-10T07:36:13.175Z,39.00
2023-04-10T07:37:13.143Z,39.03
2023-04-10T07:38:13.232Z,38.97
2023-04-10T07:39:13.345Z,38.43
2023-04-10T07:40:13.918Z,37.60
2023-04-10T07:41:13.346Z,37.29
2023-04-10T07:42:13.394Z,35.80
2023-04-10T07:43:13.439Z,35.21
2023-04-10T07:44:13.460Z,35.36
2023-04-10T07:45:13.559Z,34.70
2023-04-10T07:46:13.558Z,34.38
2023-04-10T07:47:13.582Z,34.82
2023-04-10T07:48:13.611Z,34.54
2023-04-10T07:49:13.644Z,34.26
2023-04-10T07:50:13.639Z,34.79
2023-04-10T07:51:14.689Z,34.48
2023-04-10T07:52:13.690Z,33.80
2023-04-10T07:53:13.763Z,34.09
2023-04-10T07:54:13.883Z,34.47
2023-04-10T07:55:13.906Z,34.62
2023-04-10T07:56:13.969Z,34.27
2023-04-10T07:57:14.003Z,34.73
2023-04-10T07:58:14.101Z,34.78
2023-04-10T07:59:14.099Z,35.60
2023-04-10T08:00:14.125Z,35.78
2023-04-10T08:01:14.124Z,36.22
2023-04-10T08:02:14.265Z,35.50
2023-04-10T08:03:14.300Z,35.81
2023-04-10T08:04:14.522Z,35.12
2023-04-10T08:05:14.392Z,35.66
2023-04-10T08:06:14.275Z,35.82
2023-04-10T08:07:14.329Z,35.49
2023-04-10T08:08:14.407Z,35.80
2023-04-10T08:09:14.365Z,35.50
2023-04-10T08:10:14.375Z,35.12
2023-04-10T08:11:14.766Z,36.04
2023-04-10T08:12:14.376Z,35.59
2023-04-10T08:13:14.448Z,35.48
2023-04-10T08:14:18.248Z,35.35
2023-04-10T08:15:14.375Z,36.96
2023-04-10T08:16:14.420Z,36.56
2023-04-10T08:17:14.471Z,35.77
2023-04-10T08:18:14.425Z,35.86
2023-04-10T08:19:14.444Z,35.90
2023-04-10T08:20:14.385Z,35.66
2023-04-10T08:21:14.336Z,35.99
2023-04-10T08:22:14.334Z,35.75
2023-04-10T08:23:20.478Z,36.76
2023-04-10T08:24:15.367Z,35.46
2023-04-10T08:25:14.353Z,35.33
2023-04-10T08:26:14.332Z,36.25
2023-04-10T08:27:14.314Z,34.66
2023-04-10T08:28:14.365Z,34.25
2023-04-10T08:29:14.370Z,34.85
2023-04-10T08:30:14.314Z,33.76
2023-04-10T08:31:14.380Z,32.81
2023-04-10T08:32:14.243Z,33.42
2023-04-10T08:33:14.299Z,33.76
2023-04-10T08:34:14.301Z,32.79
2023-04-10T08:35:14.263Z,32.78
2023-04-10T08:36:14.381Z,32.29
2023-04-10T08:37:14.382Z,31.88
2023-04-10T08:38:14.859Z,31.81
2023-04-10T08:39:14.512Z,31.97
2023-04-10T08:40:14.525Z,31.30
2023-04-10T08:41:14.532Z,31.49
2023-04-10T08:42:14.604Z,30.86
2023-04-10T08:43:14.618Z,30.17
2023-04-10T08:44:14.606Z,30.32
2023-04-10T08:45:15.276Z,30.31
2023-04-10T08:46:14.950Z,28.94
2023-04-10T08:47:14.690Z,28.92
2023-04-10T08:48:14.709Z,29.25
2023-04-10T08:49:14.767Z,29.67
2023-04-10T08:50:14.814Z,29.65
2023-04-10T08:51:19.462Z,29.72
2023-04-10T08:52:15.769Z,30.10
2023-04-10T08:53:14.765Z,30.00
2023-04-10T08:54:14.797Z,30.12
2023-04-10T08:55:14.777Z,29.58
2023-04-10T08:56:14.765Z,29.72
2023-04-10T08:57:14.739Z,29.99
2023-04-10T08:58:14.732Z,28.86
2023-04-10T08:59:14.792Z,28.93
2023-04-10T09:00:23.100Z,28.40
2023-04-10T09:01:15.732Z,28.55
2023-04-10T09:02:14.798Z,27.76
2023-04-10T09:03:14.968Z,28.16
2023-04-10T09:04:14.841Z,28.88
2023-04-10T09:05:14.679Z,28.07
2023-04-10T09:06:14.672Z,27.94
2023-04-10T09:07:14.688Z,28.53
2023-04-10T09:08:14.693Z,27.95
2023-04-10T09:09:14.694Z,27.51
2023-04-10T09:10:14.723Z,27.96
2023-04-10T09:11:14.625Z,27.52
2023-04-10T09:12:14.620Z,27.48
2023-04-10T09:13:14.598Z,27.61
2023-04-10T09:14:14.624Z,28.16
2023-04-10T09:15:14.640Z,27.04
2023-04-10T09:16:14.620Z,25.65
2023-04-10T09:17:14.642Z,25.41
2023-04-10T09:18:14.589Z,23.83
2023-04-10T09:19:14.649Z,24.14
2023-04-10T09:20:14.668Z,24.61
2023-04-10T09:21:14.713Z,24.50
2023-04-10T09:22:14.763Z,24.81
2023-04-10T09:23:14.698Z,25.41
2023-04-10T09:24:14.916Z,24.24
2023-04-10T09:25:14.791Z,24.00
2023-04-10T09:26:14.894Z,23.58
2023-04-10T09:27:14.930Z,23.88
2023-04-10T09:28:14.907Z,23.80
2023-04-10T09:29:14.946Z,23.24
2023-04-10T09:30:14.887Z,23.74
2023-04-10T09:31:14.969Z,22.91
2023-04-10T09:32:15.022Z,22.91
2023-04-10T09:33:15.055Z,23.42
2023-04-10T09:34:15.078Z,23.48
2023-04-10T09:35:15.175Z,23.52
2023-04-10T09:36:15.379Z,23.48
2023-04-10T09:37:15.182Z,24.76
2023-04-10T09:38:15.193Z,24.66
2023-04-10T09:39:15.259Z,25.51
2023-04-10T09:40:15.326Z,25.44
2023-04-10T09:41:15.227Z,25.17
2023-04-10T09:42:15.342Z,25.20
2023-04-10T09:43:15.323Z,24.65
2023-04-10T09:44:15.384Z,25.39
2023-04-10T09:45:15.411Z,24.96
2023-04-10T09:46:15.408Z,24.77
2023-04-10T09:47:15.402Z,24.52
2023-04-10T09:48:15.470Z,24.21
2023-04-10T09:49:15.480Z,24.32
2023-04-10T09:50:15.465Z,24.79
2023-04-10T09:51:15.501Z,24.28
2023-04-10T09:52:15.513Z,24.44
2023-04-10T09:53:15.523Z,25.28
2023-04-10T09:54:15.578Z,25.38
2023-04-10T09:55:15.602Z,25.37
2023-04-10T09:56:15.520Z,25.25
2023-04-10T09:57:15.515Z,25.19
2023-04-10T09:58:15.559Z,25.45
2023-04-10T09:59:15.562Z,24.52
2023-04-10T10:00:15.614Z,24.97
2023-04-10T10:01:15.648Z,25.78
2023-04-10T10:02:15.771Z,24.18
2023-04-10T10:03:15.840Z,24.38
2023-04-10T10:04:15.917Z,24.33
2023-04-10T10:05:15.896Z,23.21
2023-04-10T10:06:15.901Z,24.16
2023-04-10T10:07:16.027Z,24.78
2023-04-10T10:08:16.038Z,25.82
2023-04-10T10:09:16.084Z,24.39
2023-04-10T10:10:16.133Z,24.38
2023-04-10T10:11:16.202Z,22.69
2023-04-10T10:12:16.198Z,23.30
2023-04-10T10:13:16.168Z,23.15
2023-04-10T10:14:16.183Z,22.85
2023-04-10T10:15:16.168Z,23.22
2023-04-10T10:16:16.204Z,22.96
2023-04-10T10:17:16.168Z,23.36
2023-04-10T10:18:16.192Z,22.15
2023-04-10T10:19:16.246Z,20.83
2023-04-10T10:20:16.188Z,21.84
2023-04-10T10:21:16.232Z,21.60
2023-04-10T10:22:16.864Z,21.30
2023-04-10T10:23:16.331Z,21.19
2023-04-10T10:24:16.408Z,22.04
2023-04-10T10:25:16.339Z,21.25
2023-04-10T10:26:16.376Z,21.28
2023-04-10T10:27:16.393Z,20.57
2023-04-10T10:28:16.458Z,21.36
2023-04-10T10:29:16.537Z,21.30
2023-04-10T10:30:28.689Z,21.33
2023-04-10T10:31:17.624Z,20.96
2023-04-10T10:32:16.501Z,22.22
2023-04-10T10:33:16.492Z,22.39
2023-04-10T10:34:16.549Z,21.70
2023-04-10T10:35:16.506Z,21.29
2023-04-10T10:36:16.506Z,20.17
2023-04-10T10:37:16.437Z,20.11
2023-04-10T10:38:16.442Z,21.53
2023-04-10T10:39:16.474Z,21.31
2023-04-10T10:40:16.497Z,21.67
2023-04-10T10:41:16.434Z,21.26
2023-04-10T10:42:16.414Z,20.29
2023-04-10T10:43:16.471Z,20.09
2023-04-10T10:44:16.427Z,21.60
2023-04-10T10:45:16.378Z,21.35
2023-04-10T10:46:16.787Z,21.18
2023-04-10T10:47:16.438Z,21.77
2023-04-10T10:48:16.399Z,19.82
2023-04-10T10:49:16.361Z,18.78
2023-04-10T10:50:16.410Z,19.01
2023-04-10T10:51:16.353Z,19.58
2023-04-10T10:52:16.388Z,19.64
2023-04-10T10:53:16.356Z,19.33
2023-04-10T10:54:16.338Z,18.77
2023-04-10T10:55:16.326Z,18.36
2023-04-10T10:56:16.327Z,18.99
2023-04-10T10:57:16.870Z,18.76
2023-04-10T10:58:16.313Z,18.19
2023-04-10T10:59:16.370Z,17.67
2023-04-10T11:00:16.427Z,17.52
2023-04-10T11:01:16.301Z,17.64
2023-04-10T11:02:16.328Z,17.62
2023-04-10T11:03:16.454Z,17.55
2023-04-10T11:04:16.338Z,17.40
2023-04-10T11:05:16.308Z,17.56
2023-04-10T11:06:16.268Z,17.64
2023-04-10T11:07:16.239Z,18.53
2023-04-10T11:08:16.247Z,18.66
2023-04-10T11:09:16.351Z,18.12
2023-04-10T11:10:16.197Z,17.92
2023-04-10T11:11:16.396Z,19.16
2023-04-10T11:12:16.218Z,18.74
2023-04-10T11:13:16.347Z,19.12
2023-04-10T11:14:16.359Z,19.24
2023-04-10T11:15:16.338Z,18.08
2023-04-10T11:16:16.373Z,17.66
2023-04-10T11:17:16.382Z,17.90
2023-04-10T11:18:16.391Z,18.88
2023-04-10T11:19:17.019Z,18.05
2023-04-10T11:20:16.377Z,19.10
2023-04-10T11:21:16.414Z,18.17
2023-04-10T11:22:16.507Z,18.02
2023-04-10T11:23:16.431Z,18.69
2023-04-10T11:24:16.462Z,18.78
2023-04-10T11:25:16.451Z,19.30
2023-04-10T11:26:16.562Z,19.44
2023-04-10T11:27:16.568Z,18.24
2023-04-10T11:28:16.576Z,18.47
2023-04-10T11:29:16.675Z,18.33
2023-04-10T11:30:16.679Z,18.11
2023-04-10T11:31:16.689Z,17.39
2023-04-10T11:32:17.024Z,17.06
2023-04-10T11:33:16.716Z,18.13
2023-04-10T11:34:16.812Z,18.77
2023-04-10T11:35:16.718Z,18.44
2023-04-10T11:36:16.798Z,18.67
2023-04-10T11:37:16.820Z,18.73
2023-04-10T11:38:16.826Z,19.85
2023-04-10T11:39:16.868Z,19.23
2023-04-10T11:40:16.849Z,19.31
2023-04-10T11:41:16.935Z,18.73
2023-04-10T11:42:16.972Z,19.07
2023-04-10T11:43:17.066Z,18.29
2023-04-10T11:44:17.019Z,19.81
2023-04-10T11:45:17.091Z,19.23
2023-04-10T11:46:17.158Z,19.66
2023-04-10T11:47:17.181Z,18.75
2023-04-10T11:48:17.169Z,18.54
2023-04-10T11:49:17.222Z,17.91
2023-04-10T11:50:17.223Z,18.65
2023-04-10T11:51:17.228Z,17.65
2023-04-10T11:52:17.268Z,18.43
2023-04-10T11:53:17.251Z,18.13
2023-04-10T11:54:17.314Z,18.34
2023-04-10T11:55:17.360Z,18.01
2023-04-10T11:56:17.339Z,17.86
2023-04-10T11:57:17.442Z,17.56
2023-04-10T11:58:17.444Z,17.32
2023-04-10T11:59:17.461Z,18.13
2023-04-10T12:00:17.500Z,17.39
2023-04-10T12:01:17.510Z,19.12
2023-04-10T12:02:17.682Z,18.65
2023-04-10T12:03:17.700Z,17.70
2023-04-10T12:04:17.923Z,17.41
2023-04-10T12:05:17.779Z,17.36
2023-04-10T12:06:17.658Z,17.38
2023-04-10T12:07:17.713Z,17.30
2023-04-10T12:08:17.754Z,16.97
2023-04-10T12:09:17.772Z,17.25
2023-04-10T12:10:17.770Z,16.58
2023-04-10T12:11:17.810Z,15.89
2023-04-10T12:12:17.852Z,16.42
2023-04-10T12:13:17.900Z,16.01
2023-04-10T12:14:17.940Z,15.93
2023-04-10T12:15:17.913Z,16.34
2023-04-10T12:16:18.039Z,15.56
2023-04-10T12:17:17.944Z,16.05
2023-04-10T12:18:17.991Z,16.23
2023-04-10T12:19:18.109Z,16.55
2023-04-10T12:20:17.990Z,17.09
2023-04-10T12:21:18.007Z,18.06
2023-04-10T12:22:18.127Z,16.66
2023-04-10T12:23:18.191Z,17.30
2023-04-10T12:24:18.237Z,16.33
2023-04-10T12:25:18.252Z,16.96
2023-04-10T12:26:18.289Z,16.80
2023-04-10T12:27:18.331Z,17.57
2023-04-10T12:28:18.363Z,17.63
2023-04-10T12:29:18.367Z,17.20
2023-04-10T12:30:18.428Z,15.16
2023-04-10T12:31:18.437Z,16.14
2023-04-10T12:32:18.517Z,17.11
2023-04-10T12:33:18.438Z,16.71
2023-04-10T12:34:18.563Z,16.91
2023-04-10T12:35:18.607Z,14.95
2023-04-10T12:36:18.633Z,15.27
2023-04-10T12:37:18.708Z,15.28
2023-04-10T12:38:18.739Z,14.10
2023-04-10T12:39:18.710Z,15.26
2023-04-10T12:40:18.770Z,15.78
2023-04-10T12:41:18.777Z,15.38
2023-04-10T12:42:18.785Z,14.49
2023-04-10T12:43:18.804Z,15.94
2023-04-10T12:44:18.942Z,14.99
2023-04-10T12:45:18.957Z,15.62
2023-04-10T12:46:18.924Z,16.01
2023-04-10T12:47:18.984Z,14.53
2023-04-10T12:48:18.965Z,15.54
2023-04-10T12:49:19.039Z,14.78
2023-04-10T12:50:19.009Z,14.66
2023-04-10T12:51:19.053Z,14.53
2023-04-10T12:52:19.104Z,14.37
2023-04-10T12:53:19.099Z,14.88
2023-04-10T12:54:19.145Z,14.76
2023-04-10T12:55:19.228Z,14.12
2023-04-10T12:56:19.127Z,14.32
2023-04-10T12:57:19.152Z,13.63
2023-04-10T12:58:19.203Z,14.17